createdAt,value
2018-10-01T00:00:01.647Z,4.67
2018-10-01T00:02:29.372Z,4.90
2018-10-01T00:04:57.111Z,4.50
2018-10-01T00:07:24.843Z,4.60
2018-10-01T00:09:52.681Z,4.33
2018-10-01T00:12:20.419Z,4.90
2018-10-01T00:14:48.149Z,6.47
2018-10-01T00:17:15.894Z,4.87
2018-10-01T00:19:49.078Z,4.80
2018-10-01T00:22:22.204Z,5.20
2018-10-01T00:24:49.913Z,5.83
2018-10-01T00:27:17.630Z,6.87
2018-10-01T00:29:45.358Z,5.87
2018-10-01T00:32:13.070Z,4.93
2018-10-01T00:34:40.790Z,5.27
2018-10-01T00:37:08.538Z,5.67
2018-10-01T00:39:36.275Z,7.37
2018-10-01T00:42:04.031Z,6.30
2018-10-01T00:44:31.777Z,6.90
2018-10-01T00:46:59.499Z,6.97
2018-10-01T00:49:27.281Z,6.73
2018-10-01T00:51:54.996Z,7.13
2018-10-01T00:54:22.725Z,8.00
2018-10-01T00:56:50.443Z,7.07
2018-10-01T00:59:18.211Z,7.87
2018-10-01T01:01:45.943Z,7.83
2018-10-01T01:04:13.690Z,7.70
2018-10-01T01:06:41.406Z,8.87
2018-10-01T01:09:09.317Z,8.67
2018-10-01T01:11:37.030Z,8.27
2018-10-01T01:14:04.850Z,9.13
2018-10-01T01:16:32.574Z,9.90
2018-10-01T01:19:00.281Z,7.23
2018-10-01T01:21:28.036Z,7.93
2018-10-01T01:23:55.742Z,8.30
2018-10-01T01:26:23.471Z,8.63
2018-10-01T01:28:51.180Z,10.90
2018-10-01T01:31:18.890Z,11.67
2018-10-01T01:33:46.618Z,9.63
2018-10-01T01:36:14.619Z,10.23
2018-10-01T01:38:42.379Z,10.77
2018-10-01T01:41:10.087Z,10.03
2018-10-01T01:43:37.806Z,9.10
2018-10-01T01:46:05.518Z,9.90
2018-10-01T01:48:33.234Z,10.00
2018-10-01T01:51:00.985Z,10.83
2018-10-01T01:53:28.704Z,10.27
2018-10-01T01:55:56.454Z,8.50
2018-10-01T01:58:24.148Z,7.73
2018-10-01T02:00:51.890Z,8.13
2018-10-01T02:03:19.613Z,9.23
2018-10-01T02:05:47.317Z,9.27
2018-10-01T02:08:15.043Z,8.43
2018-10-01T02:10:42.788Z,8.00
2018-10-01T02:13:10.498Z,7.97
2018-10-01T02:15:38.266Z,8.57
2018-10-01T02:18:06.044Z,7.40
2018-10-01T02:20:33.755Z,6.60
2018-10-01T02:23:01.478Z,7.37
2018-10-01T02:25:29.210Z,6.50
2018-10-01T02:27:56.937Z,6.40
2018-10-01T02:30:24.642Z,6.20
2018-10-01T02:32:52.382Z,6.67
2018-10-01T02:35:20.156Z,6.73
2018-10-01T02:37:47.924Z,6.50
2018-10-01T02:40:15.658Z,5.47
2018-10-01T02:42:43.378Z,5.67
2018-10-01T02:45:11.137Z,6.83
2018-10-01T02:47:38.951Z,5.30
2018-10-01T02:50:06.834Z,7.27
2018-10-01T02:52:39.959Z,7.60
2018-10-01T02:55:07.755Z,7.03
2018-10-01T02:57:35.476Z,6.57
2018-10-01T03:00:03.277Z,6.87
2018-10-01T03:02:31.004Z,7.50
2018-10-01T03:04:58.730Z,8.30
2018-10-01T03:07:26.450Z,7.67
2018-10-01T03:09:54.255Z,6.93
2018-10-01T03:12:22.065Z,7.43
2018-10-01T03:14:49.857Z,8.47
2018-10-01T03:17:17.553Z,7.33
2018-10-01T03:19:45.267Z,8.67
2018-10-01T03:22:13.379Z,10.83
2018-10-01T03:24:41.077Z,8.20
2018-10-01T03:27:08.778Z,7.97
2018-10-01T03:29:36.490Z,7.17
2018-10-01T03:32:04.264Z,7.13
2018-10-01T03:34:31.975Z,6.50
2018-10-01T03:36:59.673Z,6.63
2018-10-01T03:39:27.374Z,6.97
2018-10-01T03:41:55.091Z,8.83
2018-10-01T03:44:22.843Z,5.67
2018-10-01T03:46:50.550Z,6.40
2018-10-01T03:49:18.274Z,6.87
2018-10-01T03:51:46.199Z,6.20
2018-10-01T03:54:13.953Z,6.63
2018-10-01T03:56:41.665Z,6.43
2018-10-01T03:59:09.391Z,6.10
2018-10-01T04:01:37.102Z,6.20
2018-10-01T04:04:04.821Z,6.30
2018-10-01T04:06:32.665Z,6.33
2018-10-01T04:09:00.421Z,5.67
2018-10-01T04:11:28.135Z,5.90
2018-10-01T04:13:55.854Z,6.67
2018-10-01T04:16:23.570Z,7.43
2018-10-01T04:18:51.279Z,7.00
2018-10-01T04:21:18.994Z,7.37
2018-10-01T04:23:46.710Z,7.23
2018-10-01T04:26:14.434Z,7.00
2018-10-01T04:28:42.135Z,7.03
2018-10-01T04:31:09.849Z,8.27
2018-10-01T04:33:37.557Z,6.43
2018-10-01T04:36:05.359Z,6.90
2018-10-01T04:38:33.049Z,6.50
2018-10-01T04:41:00.772Z,7.10
2018-10-01T04:43:28.506Z,7.33
2018-10-01T04:45:56.209Z,6.83
2018-10-01T04:48:23.926Z,6.20
2018-10-01T04:50:51.634Z,6.83
2018-10-01T04:53:19.335Z,5.70
2018-10-01T04:55:47.018Z,6.23
2018-10-01T04:58:14.809Z,6.60
2018-10-01T05:00:42.481Z,6.27
2018-10-01T05:03:10.183Z,6.63
2018-10-01T05:05:37.873Z,6.17
2018-10-01T05:08:05.675Z,8.20
2018-10-01T05:10:33.773Z,7.23
2018-10-01T05:13:01.502Z,6.17
2018-10-01T05:15:29.214Z,6.53
2018-10-01T05:17:56.977Z,6.40
2018-10-01T05:20:24.779Z,5.67
2018-10-01T05:22:52.494Z,6.50
2018-10-01T05:25:20.210Z,6.40
2018-10-01T05:27:48.026Z,6.27
2018-10-01T05:30:15.729Z,6.50
2018-10-01T05:32:43.470Z,5.50
2018-10-01T05:35:11.210Z,7.93
2018-10-01T05:37:38.945Z,7.43
2018-10-01T05:40:06.746Z,6.27
2018-10-01T05:42:34.469Z,6.23
2018-10-01T05:45:02.222Z,6.80
2018-10-01T05:47:30.030Z,7.10
2018-10-01T05:49:57.730Z,8.30
2018-10-01T05:52:25.482Z,7.43
2018-10-01T05:54:53.237Z,7.90
2018-10-01T05:57:20.980Z,7.27
2018-10-01T05:59:48.698Z,8.20
2018-10-01T06:02:16.520Z,8.53
2018-10-01T06:04:44.286Z,7.37
2018-10-01T06:07:11.982Z,6.77
2018-10-01T06:09:39.697Z,17.67
2018-10-01T06:12:07.535Z,14.70
2018-10-01T06:14:35.250Z,9.70
2018-10-01T06:17:02.975Z,8.10
2018-10-01T06:19:30.727Z,9.90
2018-10-01T06:21:58.462Z,15.20
2018-10-01T06:24:26.182Z,13.43
2018-10-01T06:26:53.930Z,7.47
2018-10-01T06:29:21.678Z,9.60
2018-10-01T06:31:49.398Z,6.13
2018-10-01T06:34:17.113Z,6.53
2018-10-01T06:36:44.827Z,8.23
2018-10-01T06:39:12.598Z,8.37
2018-10-01T06:41:40.390Z,12.77
2018-10-01T06:44:08.490Z,19.53
2018-10-01T06:46:36.226Z,9.27
2018-10-01T06:49:04.038Z,9.77
2018-10-01T06:51:31.760Z,8.17
2018-10-01T06:53:59.506Z,8.90
2018-10-01T06:56:27.298Z,8.40
2018-10-01T06:58:55.022Z,7.53
2018-10-01T07:01:22.766Z,6.73
2018-10-01T07:03:50.514Z,7.87
2018-10-01T07:06:18.266Z,6.70
2018-10-01T07:08:46.066Z,8.23
2018-10-01T07:11:13.793Z,9.03
2018-10-01T07:13:41.549Z,7.47
2018-10-01T07:16:09.300Z,7.47
2018-10-01T07:18:37.042Z,13.93
2018-10-01T07:21:04.804Z,11.77
2018-10-01T07:23:32.571Z,11.93
2018-10-01T07:26:00.307Z,13.83
2018-10-01T07:28:28.064Z,31.87
2018-10-01T07:30:55.823Z,32.47
2018-10-01T07:33:23.554Z,37.93
2018-10-01T07:35:51.351Z,15.93
2018-10-01T07:38:19.231Z,10.57
2018-10-01T07:40:47.550Z,11.80
2018-10-01T07:43:15.347Z,15.97
2018-10-01T07:45:43.154Z,9.77
2018-10-01T07:48:10.944Z,73.03
2018-10-01T07:50:38.818Z,28.77
2018-10-01T07:53:06.691Z,18.43
2018-10-01T07:55:34.469Z,30.60
2018-10-01T07:58:02.205Z,41.97
2018-10-01T08:00:30.002Z,40.47
2018-10-01T08:02:57.681Z,16.07
2018-10-01T08:05:25.404Z,12.47
2018-10-01T08:07:53.146Z,47.57
2018-10-01T08:10:20.885Z,30.47
2018-10-01T08:12:48.598Z,16.80
2018-10-01T08:15:16.339Z,15.07
2018-10-01T08:17:44.078Z,24.17
2018-10-01T08:20:11.876Z,10.83
2018-10-01T08:22:39.556Z,8.70
2018-10-01T08:25:09.320Z,11.23
2018-10-01T08:27:37.141Z,10.00
2018-10-01T08:30:05.078Z,6.70
2018-10-01T08:32:32.808Z,13.30
2018-10-01T08:35:00.641Z,10.33
2018-10-01T08:37:28.338Z,7.33
2018-10-01T08:39:56.063Z,7.10
2018-10-01T08:42:23.786Z,7.97
2018-10-01T08:44:51.518Z,7.17
2018-10-01T08:47:19.470Z,7.37
2018-10-01T08:50:21.825Z,6.30
2018-10-01T08:52:57.029Z,6.87
2018-10-01T08:55:24.893Z,6.53
2018-10-01T08:57:52.658Z,7.80
2018-10-01T09:00:20.390Z,9.50
2018-10-01T09:02:48.973Z,9.57
2018-10-01T09:05:17.106Z,6.57
2018-10-01T09:07:44.791Z,8.80
2018-10-01T09:10:12.480Z,7.10
2018-10-01T09:12:40.185Z,6.87
2018-10-01T09:15:07.984Z,7.50
2018-10-01T09:17:35.761Z,23.73
2018-10-01T09:20:03.908Z,23.20
2018-10-01T09:22:31.622Z,14.30
2018-10-01T09:24:59.351Z,9.60
2018-10-01T09:27:27.085Z,8.60
2018-10-01T09:29:54.821Z,21.97
2018-10-01T09:32:22.590Z,10.40
2018-10-01T09:34:50.290Z,8.83
2018-10-01T09:37:18.024Z,11.80
2018-10-01T09:39:45.770Z,10.07
2018-10-01T09:42:13.548Z,9.90
2018-10-01T09:44:41.265Z,8.83
2018-10-01T09:47:08.999Z,8.47
2018-10-01T09:49:36.727Z,9.23
2018-10-01T09:52:04.521Z,8.73
2018-10-01T09:54:32.228Z,10.60
2018-10-01T09:56:59.996Z,11.23
2018-10-01T09:59:27.723Z,11.27
2018-10-01T10:01:55.485Z,10.00
2018-10-01T10:04:23.411Z,10.53
2018-10-01T10:06:51.083Z,9.17
2018-10-01T10:09:18.915Z,16.13
2018-10-01T10:11:46.698Z,15.00
2018-10-01T10:14:14.534Z,11.60
2018-10-01T10:16:42.336Z,14.97
2018-10-01T10:19:09.999Z,12.50
2018-10-01T10:21:37.730Z,11.87
2018-10-01T10:24:05.509Z,13.47
2018-10-01T10:26:33.307Z,10.83
2018-10-01T10:29:01.030Z,9.93
2018-10-01T10:31:28.761Z,10.07
2018-10-01T10:33:56.548Z,13.20
2018-10-01T10:36:24.276Z,13.17
2018-10-01T10:38:52.002Z,11.60
2018-10-01T10:41:19.741Z,13.90
2018-10-01T10:43:47.453Z,12.13
2018-10-01T10:46:15.184Z,16.07
2018-10-01T10:48:43.020Z,14.53
2018-10-01T10:51:10.762Z,17.50
2018-10-01T10:53:38.485Z,26.23
2018-10-01T10:56:06.464Z,30.17
2018-10-01T10:58:34.186Z,38.63
2018-10-01T11:01:01.920Z,23.93
2018-10-01T11:03:29.674Z,21.57
2018-10-01T11:05:57.380Z,19.77
2018-10-01T11:08:25.150Z,13.13
2018-10-01T11:10:52.861Z,23.37
2018-10-01T11:13:20.577Z,25.03
2018-10-01T11:15:48.298Z,14.27
2018-10-01T11:18:16.120Z,11.20
2018-10-01T11:20:43.853Z,12.23
2018-10-01T11:23:11.577Z,12.13
2018-10-01T11:25:39.403Z,10.17
2018-10-01T11:28:07.158Z,9.33
2018-10-01T11:30:34.926Z,10.97
2018-10-01T11:33:02.645Z,8.57
2018-10-01T11:35:30.450Z,9.37
2018-10-01T11:37:58.150Z,7.20
2018-10-01T11:40:25.869Z,7.30
2018-10-01T11:42:53.601Z,7.67
2018-10-01T11:45:21.489Z,8.13
2018-10-01T11:47:49.136Z,11.43
2018-10-01T11:50:16.913Z,9.17
2018-10-01T11:52:44.650Z,8.33
2018-10-01T11:55:12.378Z,8.43
2018-10-01T11:57:40.176Z,7.53
2018-10-01T12:00:08.765Z,9.10
2018-10-01T12:02:36.486Z,9.63
2018-10-01T12:05:04.674Z,6.77
2018-10-01T12:07:32.415Z,7.80
2018-10-01T12:10:00.244Z,7.40
2018-10-01T12:12:27.974Z,6.57
2018-10-01T12:14:55.779Z,6.90
2018-10-01T12:17:23.486Z,6.90
2018-10-01T12:19:51.208Z,7.07
2018-10-01T12:22:18.985Z,6.63
2018-10-01T12:24:46.683Z,6.93
2018-10-01T12:27:14.508Z,6.10
2018-10-01T12:29:42.198Z,6.47
2018-10-01T12:32:09.921Z,7.23
2018-10-01T12:34:37.639Z,6.53
2018-10-01T12:37:05.466Z,6.03
2018-10-01T12:39:33.294Z,5.10
2018-10-01T12:42:01.050Z,6.00
2018-10-01T12:44:29.502Z,6.93
2018-10-01T12:46:57.245Z,9.70
2018-10-01T12:49:24.965Z,8.10
2018-10-01T12:51:52.698Z,6.23
2018-10-01T12:54:20.424Z,5.90
2018-10-01T12:56:48.394Z,6.77
2018-10-01T12:59:16.113Z,8.00
2018-10-01T13:01:43.854Z,7.63
2018-10-01T13:04:11.606Z,5.57
2018-10-01T13:06:39.562Z,5.60
2018-10-01T13:09:09.754Z,5.67
2018-10-01T13:11:37.585Z,4.77
2018-10-01T13:14:05.375Z,5.53
2018-10-01T13:16:33.122Z,5.80
2018-10-01T13:19:00.878Z,5.60
2018-10-01T13:21:28.619Z,7.03
2018-10-01T13:23:56.401Z,6.07
2018-10-01T13:26:24.136Z,6.13
2018-10-01T13:28:51.870Z,5.57
2018-10-01T13:31:19.618Z,7.90
2018-10-01T13:33:47.430Z,6.37
2018-10-01T13:36:15.207Z,8.23
2018-10-01T13:38:49.571Z,8.23
2018-10-01T13:41:17.305Z,7.67
2018-10-01T13:43:45.052Z,7.33
2018-10-01T13:46:12.870Z,8.10
2018-10-01T13:48:40.722Z,6.27
2018-10-01T13:51:08.387Z,7.60
2018-10-01T13:53:36.528Z,7.10
2018-10-01T13:56:04.402Z,7.07
2018-10-01T13:58:32.214Z,8.43
2018-10-01T14:00:59.981Z,7.43
2018-10-01T14:03:27.760Z,9.90
2018-10-01T14:05:55.526Z,9.27
2018-10-01T14:08:23.262Z,10.70
2018-10-01T14:10:51.000Z,7.77
2018-10-01T14:13:18.784Z,10.53
2018-10-01T14:15:46.474Z,10.37
2018-10-01T14:18:14.253Z,11.57
2018-10-01T14:20:42.253Z,7.47
2018-10-01T14:23:09.986Z,7.77
2018-10-01T14:25:37.835Z,7.40
2018-10-01T14:28:05.490Z,7.53
2018-10-01T14:30:33.358Z,8.83
2018-10-01T14:33:00.983Z,9.03
2018-10-01T14:35:28.716Z,8.40
2018-10-01T14:37:56.447Z,8.90
2018-10-01T14:40:24.187Z,8.17
2018-10-01T14:42:51.915Z,7.47
2018-10-01T14:45:19.633Z,6.97
2018-10-01T14:47:47.357Z,8.57
2018-10-01T14:50:15.205Z,8.63
2018-10-01T14:52:42.930Z,7.37
2018-10-01T14:55:10.650Z,7.80
2018-10-01T14:57:38.359Z,8.30
2018-10-01T15:00:06.268Z,8.87
2018-10-01T15:02:33.991Z,7.67
2018-10-01T15:05:01.702Z,8.90
2018-10-01T15:07:29.418Z,8.97
2018-10-01T15:09:57.216Z,9.93
2018-10-01T15:12:25.144Z,9.53
2018-10-01T15:14:52.873Z,9.33
2018-10-01T15:17:20.645Z,8.63
2018-10-01T15:19:48.374Z,9.20
2018-10-01T15:22:16.133Z,8.73
2018-10-01T15:24:43.850Z,10.37
2018-10-01T15:27:11.573Z,8.40
2018-10-01T15:29:39.277Z,9.37
2018-10-01T15:32:07.097Z,8.47
2018-10-01T15:34:34.809Z,9.80
2018-10-01T15:37:02.544Z,7.50
2018-10-01T15:39:30.376Z,9.83
2018-10-01T15:41:58.177Z,8.83
2018-10-01T15:44:25.905Z,7.03
2018-10-01T15:46:53.659Z,6.63
2018-10-01T15:49:21.454Z,6.60
2018-10-01T15:51:49.162Z,7.03
2018-10-01T15:54:16.948Z,7.10
2018-10-01T15:56:44.663Z,6.97
2018-10-01T15:59:12.391Z,5.63
2018-10-01T16:01:40.142Z,8.23
2018-10-01T16:04:07.855Z,7.37
2018-10-01T16:06:35.582Z,5.50
2018-10-01T16:09:05.651Z,6.63
2018-10-01T16:11:33.439Z,7.53
2018-10-01T16:14:01.216Z,7.63
2018-10-01T16:16:28.925Z,9.60
2018-10-01T16:18:56.634Z,6.87
2018-10-01T16:21:24.359Z,6.47
2018-10-01T16:23:52.069Z,7.83
2018-10-01T16:26:19.782Z,5.60
2018-10-01T16:28:47.496Z,6.07
2018-10-01T16:31:15.261Z,6.77
2018-10-01T16:33:42.962Z,6.60
2018-10-01T16:36:10.698Z,8.43
2018-10-01T16:38:38.413Z,6.90
2018-10-01T16:41:06.565Z,7.57
2018-10-01T16:43:34.377Z,7.30
2018-10-01T16:46:02.087Z,9.53
2018-10-01T16:48:29.875Z,7.00
2018-10-01T16:50:57.624Z,13.83
2018-10-01T16:53:25.338Z,8.33
2018-10-01T16:55:53.070Z,9.93
2018-10-01T16:58:20.767Z,9.23
2018-10-01T17:00:48.545Z,9.13
2018-10-01T17:03:16.298Z,9.27
2018-10-01T17:05:44.046Z,7.27
2018-10-01T17:08:11.781Z,9.37
2018-10-01T17:10:39.544Z,9.23
2018-10-01T17:13:07.388Z,8.00
2018-10-01T17:15:35.087Z,9.77
2018-10-01T17:18:02.822Z,9.00
2018-10-01T17:20:30.821Z,9.63
2018-10-01T17:22:58.552Z,11.30
2018-10-01T17:25:26.254Z,7.67
2018-10-01T17:27:53.966Z,8.03
2018-10-01T17:30:21.924Z,9.43
2018-10-01T17:32:49.638Z,10.80
2018-10-01T17:35:17.364Z,6.70
2018-10-01T17:37:45.087Z,8.00
2018-10-01T17:40:13.023Z,9.27
2018-10-01T17:42:40.790Z,9.43
2018-10-01T17:45:08.617Z,9.20
2018-10-01T17:47:37.525Z,11.07
2018-10-01T17:50:05.567Z,11.97
2018-10-01T17:52:33.502Z,9.10
2018-10-01T17:55:01.217Z,10.83
2018-10-01T17:57:28.942Z,10.10
2018-10-01T17:59:57.057Z,9.60
2018-10-01T18:02:25.214Z,10.27
2018-10-01T18:04:53.098Z,9.83
2018-10-01T18:07:20.939Z,11.43
2018-10-01T18:09:48.806Z,11.40
2018-10-01T18:12:16.585Z,10.27
2018-10-01T18:14:44.321Z,11.20
2018-10-01T18:17:12.049Z,12.40
2018-10-01T18:19:39.795Z,11.07
2018-10-01T18:22:07.599Z,11.07
2018-10-01T18:24:35.322Z,12.77
2018-10-01T18:27:03.082Z,13.97
2018-10-01T18:29:30.811Z,14.33
2018-10-01T18:31:58.614Z,12.83
2018-10-01T18:34:26.342Z,14.03
2018-10-01T18:36:54.071Z,12.97
2018-10-01T18:39:24.343Z,17.40
2018-10-01T18:41:52.109Z,16.63
2018-10-01T18:44:19.834Z,16.03
2018-10-01T18:46:47.669Z,15.47
2018-10-01T18:49:16.034Z,15.87
2018-10-01T18:51:43.767Z,12.70
2018-10-01T18:54:13.751Z,15.20
2018-10-01T18:56:43.105Z,17.27
2018-10-01T18:59:10.852Z,15.03
2018-10-01T19:01:38.570Z,18.57
2018-10-01T19:04:06.350Z,16.33
2018-10-01T19:06:34.093Z,17.83
2018-10-01T19:09:02.129Z,21.23
2018-10-01T19:11:30.309Z,19.00
2018-10-01T19:13:58.030Z,20.40
2018-10-01T19:16:25.746Z,19.03
2018-10-01T19:18:53.557Z,20.43
2018-10-01T19:21:21.326Z,25.50
2018-10-01T19:23:49.100Z,22.73
2018-10-01T19:26:16.838Z,27.17
2018-10-01T19:28:44.597Z,28.60
2018-10-01T19:31:12.346Z,25.40
2018-10-01T19:33:40.085Z,24.20
2018-10-01T19:36:08.018Z,21.53
2018-10-01T19:38:35.705Z,26.80
2018-10-01T19:41:03.549Z,24.10
2018-10-01T19:43:31.327Z,26.60
2018-10-01T19:45:59.053Z,25.70
2018-10-01T19:48:26.761Z,26.77
2018-10-01T19:50:54.569Z,26.23
2018-10-01T19:53:22.335Z,25.47
2018-10-01T19:55:50.027Z,23.57
2018-10-01T19:58:17.758Z,24.47
2018-10-01T20:00:45.911Z,22.97
2018-10-01T20:03:13.650Z,25.70
2018-10-01T20:05:41.375Z,25.63
2018-10-01T20:08:09.114Z,26.57
2018-10-01T20:10:36.856Z,26.30
2018-10-01T20:13:04.805Z,27.27
2018-10-01T20:15:32.531Z,27.93
2018-10-01T20:18:00.247Z,27.97
2018-10-01T20:20:28.005Z,26.43
2018-10-01T20:22:55.762Z,25.83
2018-10-01T20:25:23.511Z,25.27
2018-10-01T20:27:51.350Z,25.00
2018-10-01T20:30:19.105Z,22.70
2018-10-01T20:32:46.762Z,25.87
2018-10-01T20:35:14.541Z,27.53
2018-10-01T20:37:42.295Z,25.73
2018-10-01T20:40:10.017Z,24.67
2018-10-01T20:42:37.829Z,22.27
2018-10-01T20:45:05.622Z,21.13
2018-10-01T20:47:33.385Z,22.00
2018-10-01T20:50:01.131Z,20.67
2018-10-01T20:52:28.921Z,21.10
2018-10-01T20:54:56.626Z,21.30
2018-10-01T20:57:24.351Z,20.30
2018-10-01T20:59:52.137Z,20.27
2018-10-01T21:02:19.905Z,20.30
2018-10-01T21:04:47.622Z,19.43
2018-10-01T21:07:15.346Z,20.63
2018-10-01T21:09:43.078Z,20.87
2018-10-01T21:12:10.799Z,24.47
2018-10-01T21:14:38.555Z,19.43
2018-10-01T21:17:06.268Z,21.50
2018-10-01T21:19:33.990Z,22.83
2018-10-01T21:22:01.701Z,22.83
2018-10-01T21:24:29.439Z,19.30
2018-10-01T21:26:57.174Z,17.17
2018-10-01T21:29:24.889Z,14.53
2018-10-01T21:31:52.610Z,13.20
2018-10-01T21:34:20.321Z,10.60
2018-10-01T21:36:48.036Z,11.37
2018-10-01T21:39:23.655Z,11.27
2018-10-01T21:41:51.393Z,10.10
2018-10-01T21:44:19.157Z,10.63
2018-10-01T21:46:46.910Z,11.77
2018-10-01T21:49:14.606Z,11.97
2018-10-01T21:51:42.317Z,11.87
2018-10-01T21:54:10.017Z,11.83
2018-10-01T21:56:37.732Z,10.73
2018-10-01T21:59:05.451Z,9.80
2018-10-01T22:01:37.203Z,10.83
2018-10-01T22:04:05.036Z,12.27
2018-10-01T22:06:32.904Z,11.90
2018-10-01T22:09:00.749Z,11.03
2018-10-01T22:11:28.454Z,11.10
2018-10-01T22:13:56.175Z,8.13
2018-10-01T22:16:23.897Z,9.77
2018-10-01T22:18:51.605Z,8.90
2018-10-01T22:21:19.346Z,12.50
2018-10-01T22:23:47.076Z,7.40
2018-10-01T22:26:14.794Z,6.80
2018-10-01T22:28:42.514Z,9.70
2018-10-01T22:31:10.243Z,7.90
2018-10-01T22:33:38.044Z,8.20
2018-10-01T22:36:05.842Z,9.07
2018-10-01T22:38:33.567Z,9.23
2018-10-01T22:41:02.136Z,7.77
2018-10-01T22:43:30.059Z,7.77
2018-10-01T22:45:57.802Z,7.63
2018-10-01T22:48:25.579Z,9.63
2018-10-01T22:50:53.499Z,11.07
2018-10-01T22:53:21.277Z,10.73
2018-10-01T22:55:49.002Z,8.07
2018-10-01T22:58:16.716Z,9.77
2018-10-01T23:00:44.669Z,8.70
2018-10-01T23:03:12.390Z,8.40
2018-10-01T23:05:40.113Z,8.80
2018-10-01T23:08:07.816Z,9.83
2018-10-01T23:10:35.581Z,9.63
2018-10-01T23:13:03.330Z,10.57
2018-10-01T23:15:31.172Z,7.80
2018-10-01T23:17:59.067Z,9.97
2018-10-01T23:20:26.928Z,8.27
2018-10-01T23:22:54.689Z,9.27
2018-10-01T23:25:22.470Z,8.00
2018-10-01T23:27:50.190Z,9.23
2018-10-01T23:30:17.930Z,9.47
2018-10-01T23:32:45.652Z,9.23
2018-10-01T23:35:13.387Z,11.20
2018-10-01T23:37:41.086Z,9.00
2018-10-01T23:40:08.835Z,9.17
2018-10-01T23:42:36.568Z,9.53
2018-10-01T23:45:04.426Z,7.93
2018-10-01T23:47:32.143Z,8.80
2018-10-01T23:49:59.876Z,11.00
2018-10-01T23:52:27.609Z,10.23
2018-10-01T23:54:55.334Z,10.40
2018-10-01T23:57:23.057Z,18.77
2018-10-01T23:59:50.787Z,11.27
